sensor_id;sensor_type;location;lat;lon;timestamp;temperature;humidity
47338;DHT22;33069;51.970;5.892;2023-02-18T00:01:02;10.10;88.70
47338;DHT22;33069;51.970;5.892;2023-02-18T00:03:32;10.00;88.50
47338;DHT22;33069;51.970;5.892;2023-02-18T00:05:58;10.00;88.80
47338;DHT22;33069;51.970;5.892;2023-02-18T00:08:24;9.90;89.10
47338;DHT22;33069;51.970;5.892;2023-02-18T00:10:50;10.00;89.30
47338;DHT22;33069;51.970;5.892;2023-02-18T00:13:15;10.00;89.20
47338;DHT22;33069;51.970;5.892;2023-02-18T00:15:41;10.00;89.30
47338;DHT22;33069;51.970;5.892;2023-02-18T00:18:07;10.00;89.40
47338;DHT22;33069;51.970;5.892;2023-02-18T00:20:33;9.90;89.40
47338;DHT22;33069;51.970;5.892;2023-02-18T00:23:01;9.80;89.40
47338;DHT22;33069;51.970;5.892;2023-02-18T00:25:27;10.00;89.50
47338;DHT22;33069;51.970;5.892;2023-02-18T00:27:53;10.00;89.40
47338;DHT22;33069;51.970;5.892;2023-02-18T00:30:18;10.00;89.60
47338;DHT22;33069;51.970;5.892;2023-02-18T00:32:44;9.90;89.60
47338;DHT22;33069;51.970;5.892;2023-02-18T00:35:10;9.80;89.70
47338;DHT22;33069;51.970;5.892;2023-02-18T00:37:35;10.00;89.80
47338;DHT22;33069;51.970;5.892;2023-02-18T00:40:01;9.90;89.70
47338;DHT22;33069;51.970;5.892;2023-02-18T00:42:27;9.70;89.70
47338;DHT22;33069;51.970;5.892;2023-02-18T00:44:53;9.90;89.90
47338;DHT22;33069;51.970;5.892;2023-02-18T00:47:19;9.90;89.90
47338;DHT22;33069;51.970;5.892;2023-02-18T00:49:45;9.90;89.90
47338;DHT22;33069;51.970;5.892;2023-02-18T00:52:10;10.00;89.90
47338;DHT22;33069;51.970;5.892;2023-02-18T00:54:36;9.80;89.80
47338;DHT22;33069;51.970;5.892;2023-02-18T00:57:02;10.00;89.80
47338;DHT22;33069;51.970;5.892;2023-02-18T00:59:27;10.00;89.70
47338;DHT22;33069;51.970;5.892;2023-02-18T01:01:53;9.80;89.50
47338;DHT22;33069;51.970;5.892;2023-02-18T01:04:19;10.00;89.70
47338;DHT22;33069;51.970;5.892;2023-02-18T01:06:44;10.00;89.80
47338;DHT22;33069;51.970;5.892;2023-02-18T01:09:10;9.80;89.70
47338;DHT22;33069;51.970;5.892;2023-02-18T01:11:36;9.90;89.70
47338;DHT22;33069;51.970;5.892;2023-02-18T01:14:02;9.80;89.70
47338;DHT22;33069;51.970;5.892;2023-02-18T01:16:28;9.80;89.70
47338;DHT22;33069;51.970;5.892;2023-02-18T01:18:54;9.70;89.80
47338;DHT22;33069;51.970;5.892;2023-02-18T01:21:20;10.00;89.90
47338;DHT22;33069;51.970;5.892;2023-02-18T01:23:46;9.90;89.60
47338;DHT22;33069;51.970;5.892;2023-02-18T01:26:12;9.80;89.50
47338;DHT22;33069;51.970;5.892;2023-02-18T01:28:39;9.90;89.50
47338;DHT22;33069;51.970;5.892;2023-02-18T01:31:07;9.70;89.50
47338;DHT22;33069;51.970;5.892;2023-02-18T01:33:33;10.00;89.70
47338;DHT22;33069;51.970;5.892;2023-02-18T01:35:59;9.90;89.70
47338;DHT22;33069;51.970;5.892;2023-02-18T01:38:24;9.90;89.70
47338;DHT22;33069;51.970;5.892;2023-02-18T01:40:51;9.80;89.70
47338;DHT22;33069;51.970;5.892;2023-02-18T01:43:18;9.80;89.70
47338;DHT22;33069;51.970;5.892;2023-02-18T01:48:27;10.00;89.60
47338;DHT22;33069;51.970;5.892;2023-02-18T01:54:21;9.90;89.30
47338;DHT22;33069;51.970;5.892;2023-02-18T01:56:30;9.90;89.50
47338;DHT22;33069;51.970;5.892;2023-02-18T01:59:00;9.80;89.60
47338;DHT22;33069;51.970;5.892;2023-02-18T02:01:26;9.80;89.70
47338;DHT22;33069;51.970;5.892;2023-02-18T02:03:52;9.90;90.00
47338;DHT22;33069;51.970;5.892;2023-02-18T02:06:20;9.80;89.90
47338;DHT22;33069;51.970;5.892;2023-02-18T02:08:47;9.80;90.10
47338;DHT22;33069;51.970;5.892;2023-02-18T02:11:20;9.80;90.10
47338;DHT22;33069;51.970;5.892;2023-02-18T02:16:44;10.00;90.40
47338;DHT22;33069;51.970;5.892;2023-02-18T02:19:45;9.80;90.30
47338;DHT22;33069;51.970;5.892;2023-02-18T02:22:36;9.90;90.50
47338;DHT22;33069;51.970;5.892;2023-02-18T02:38:38;9.90;90.90
47338;DHT22;33069;51.970;5.892;2023-02-18T02:41:57;9.80;90.90
47338;DHT22;33069;51.970;5.892;2023-02-18T02:44:12;10.00;91.00
47338;DHT22;33069;51.970;5.892;2023-02-18T02:46:46;10.00;91.00
47338;DHT22;33069;51.970;5.892;2023-02-18T02:54:26;10.30;91.10
47338;DHT22;33069;51.970;5.892;2023-02-18T02:59:47;10.20;91.10
47338;DHT22;33069;51.970;5.892;2023-02-18T03:02:37;10.30;91.10
47338;DHT22;33069;51.970;5.892;2023-02-18T03:08:03;10.30;91.20
47338;DHT22;33069;51.970;5.892;2023-02-18T03:13:56;10.30;91.10
47338;DHT22;33069;51.970;5.892;2023-02-18T03:16:39;10.40;91.20
47338;DHT22;33069;51.970;5.892;2023-02-18T03:19:11;10.40;91.20
47338;DHT22;33069;51.970;5.892;2023-02-18T03:21:52;10.40;91.10
47338;DHT22;33069;51.970;5.892;2023-02-18T03:24:33;10.40;91.20
47338;DHT22;33069;51.970;5.892;2023-02-18T03:27:10;10.40;91.30
47338;DHT22;33069;51.970;5.892;2023-02-18T03:29:40;10.50;91.40
47338;DHT22;33069;51.970;5.892;2023-02-18T03:32:09;10.50;91.40
47338;DHT22;33069;51.970;5.892;2023-02-18T03:34:40;10.40;91.40
47338;DHT22;33069;51.970;5.892;2023-02-18T03:37:08;10.40;91.40
47338;DHT22;33069;51.970;5.892;2023-02-18T03:39:35;10.40;91.40
47338;DHT22;33069;51.970;5.892;2023-02-18T03:42:02;10.50;91.50
47338;DHT22;33069;51.970;5.892;2023-02-18T03:44:30;10.40;91.40
47338;DHT22;33069;51.970;5.892;2023-02-18T03:46:56;10.50;91.50
47338;DHT22;33069;51.970;5.892;2023-02-18T03:49:22;10.40;91.50
47338;DHT22;33069;51.970;5.892;2023-02-18T03:51:48;10.60;91.50
47338;DHT22;33069;51.970;5.892;2023-02-18T03:54:14;10.50;91.50
47338;DHT22;33069;51.970;5.892;2023-02-18T03:56:41;10.60;91.40
47338;DHT22;33069;51.970;5.892;2023-02-18T03:59:07;10.50;91.40
47338;DHT22;33069;51.970;5.892;2023-02-18T04:01:33;10.60;91.50
47338;DHT22;33069;51.970;5.892;2023-02-18T04:04:00;10.60;91.50
47338;DHT22;33069;51.970;5.892;2023-02-18T04:06:27;10.50;91.40
47338;DHT22;33069;51.970;5.892;2023-02-18T04:08:54;10.60;91.50
47338;DHT22;33069;51.970;5.892;2023-02-18T04:11:19;10.60;91.50
47338;DHT22;33069;51.970;5.892;2023-02-18T04:13:45;10.50;91.50
47338;DHT22;33069;51.970;5.892;2023-02-18T04:16:11;10.40;91.50
47338;DHT22;33069;51.970;5.892;2023-02-18T04:18:37;10.50;91.60
47338;DHT22;33069;51.970;5.892;2023-02-18T04:21:02;10.50;91.60
47338;DHT22;33069;51.970;5.892;2023-02-18T04:23:28;10.60;91.70
47338;DHT22;33069;51.970;5.892;2023-02-18T04:25:54;10.50;91.70
47338;DHT22;33069;51.970;5.892;2023-02-18T04:28:20;10.60;91.70
47338;DHT22;33069;51.970;5.892;2023-02-18T04:30:46;10.50;91.80
47338;DHT22;33069;51.970;5.892;2023-02-18T04:33:12;10.60;91.70
47338;DHT22;33069;51.970;5.892;2023-02-18T04:35:38;10.60;91.70
47338;DHT22;33069;51.970;5.892;2023-02-18T04:38:06;10.70;91.70
47338;DHT22;33069;51.970;5.892;2023-02-18T04:40:33;10.60;91.60
47338;DHT22;33069;51.970;5.892;2023-02-18T04:42:59;10.50;91.60
47338;DHT22;33069;51.970;5.892;2023-02-18T04:45:26;10.50;91.60
47338;DHT22;33069;51.970;5.892;2023-02-18T04:47:52;10.50;91.70
47338;DHT22;33069;51.970;5.892;2023-02-18T04:50:19;10.60;91.70
47338;DHT22;33069;51.970;5.892;2023-02-18T04:52:45;10.60;91.80
47338;DHT22;33069;51.970;5.892;2023-02-18T04:55:11;10.50;91.70
47338;DHT22;33069;51.970;5.892;2023-02-18T04:57:36;10.50;91.70
47338;DHT22;33069;51.970;5.892;2023-02-18T05:00:04;10.50;91.70
47338;DHT22;33069;51.970;5.892;2023-02-18T05:02:32;10.60;91.80
47338;DHT22;33069;51.970;5.892;2023-02-18T05:04:57;10.50;91.70
47338;DHT22;33069;51.970;5.892;2023-02-18T05:07:23;10.60;91.70
47338;DHT22;33069;51.970;5.892;2023-02-18T05:09:49;10.50;91.70
47338;DHT22;33069;51.970;5.892;2023-02-18T05:12:14;10.50;91.80
47338;DHT22;33069;51.970;5.892;2023-02-18T05:14:40;10.40;91.80
47338;DHT22;33069;51.970;5.892;2023-02-18T05:17:06;10.40;91.80
47338;DHT22;33069;51.970;5.892;2023-02-18T05:19:31;10.50;91.90
47338;DHT22;33069;51.970;5.892;2023-02-18T05:21:57;10.50;91.90
47338;DHT22;33069;51.970;5.892;2023-02-18T05:24:23;10.50;91.90
47338;DHT22;33069;51.970;5.892;2023-02-18T05:26:49;10.50;91.90
47338;DHT22;33069;51.970;5.892;2023-02-18T05:29:14;10.50;91.90
47338;DHT22;33069;51.970;5.892;2023-02-18T05:31:40;10.40;91.90
47338;DHT22;33069;51.970;5.892;2023-02-18T05:34:06;10.30;91.90
47338;DHT22;33069;51.970;5.892;2023-02-18T05:36:32;10.40;92.00
47338;DHT22;33069;51.970;5.892;2023-02-18T05:38:58;10.40;92.00
47338;DHT22;33069;51.970;5.892;2023-02-18T05:41:23;10.40;92.00
47338;DHT22;33069;51.970;5.892;2023-02-18T05:43:49;10.50;92.00
47338;DHT22;33069;51.970;5.892;2023-02-18T05:46:33;10.50;91.90
47338;DHT22;33069;51.970;5.892;2023-02-18T05:48:59;10.30;91.70
47338;DHT22;33069;51.970;5.892;2023-02-18T05:51:25;10.50;91.70
47338;DHT22;33069;51.970;5.892;2023-02-18T05:53:50;10.30;91.70
47338;DHT22;33069;51.970;5.892;2023-02-18T05:56:16;10.30;91.80
47338;DHT22;33069;51.970;5.892;2023-02-18T05:58:42;10.20;91.70
47338;DHT22;33069;51.970;5.892;2023-02-18T06:01:08;10.30;91.80
47338;DHT22;33069;51.970;5.892;2023-02-18T06:03:33;10.30;91.80
47338;DHT22;33069;51.970;5.892;2023-02-18T06:05:59;10.20;91.70
47338;DHT22;33069;51.970;5.892;2023-02-18T06:08:25;10.20;91.70
47338;DHT22;33069;51.970;5.892;2023-02-18T06:10:50;10.20;91.80
47338;DHT22;33069;51.970;5.892;2023-02-18T06:13:16;10.20;91.80
47338;DHT22;33069;51.970;5.892;2023-02-18T06:15:42;10.20;91.80
47338;DHT22;33069;51.970;5.892;2023-02-18T06:18:08;10.20;91.90
47338;DHT22;33069;51.970;5.892;2023-02-18T06:20:34;10.20;91.80
47338;DHT22;33069;51.970;5.892;2023-02-18T06:22:59;10.10;91.80
47338;DHT22;33069;51.970;5.892;2023-02-18T06:25:25;10.10;91.90
47338;DHT22;33069;51.970;5.892;2023-02-18T06:27:51;10.20;91.90
47338;DHT22;33069;51.970;5.892;2023-02-18T06:30:16;10.10;91.80
47338;DHT22;33069;51.970;5.892;2023-02-18T06:32:42;10.20;91.90
47338;DHT22;33069;51.970;5.892;2023-02-18T06:35:08;10.10;91.90
47338;DHT22;33069;51.970;5.892;2023-02-18T06:37:34;10.20;91.90
47338;DHT22;33069;51.970;5.892;2023-02-18T06:39:59;10.20;91.80
47338;DHT22;33069;51.970;5.892;2023-02-18T06:42:25;10.20;91.70
47338;DHT22;33069;51.970;5.892;2023-02-18T06:44:51;10.10;91.70
47338;DHT22;33069;51.970;5.892;2023-02-18T06:47:17;10.10;91.70
47338;DHT22;33069;51.970;5.892;2023-02-18T06:49:42;10.10;91.70
47338;DHT22;33069;51.970;5.892;2023-02-18T06:52:08;10.00;91.70
47338;DHT22;33069;51.970;5.892;2023-02-18T06:54:34;10.10;91.70
47338;DHT22;33069;51.970;5.892;2023-02-18T06:56:59;10.20;91.80
47338;DHT22;33069;51.970;5.892;2023-02-18T06:59:25;10.10;91.70
47338;DHT22;33069;51.970;5.892;2023-02-18T07:01:51;10.10;91.80
47338;DHT22;33069;51.970;5.892;2023-02-18T07:04:17;10.00;91.80
47338;DHT22;33069;51.970;5.892;2023-02-18T07:06:42;10.10;91.90
47338;DHT22;33069;51.970;5.892;2023-02-18T07:09:08;10.00;91.90
47338;DHT22;33069;51.970;5.892;2023-02-18T07:11:34;10.10;91.90
47338;DHT22;33069;51.970;5.892;2023-02-18T07:13:59;10.00;91.90
47338;DHT22;33069;51.970;5.892;2023-02-18T07:16:25;10.00;91.70
47338;DHT22;33069;51.970;5.892;2023-02-18T07:18:51;10.00;91.50
47338;DHT22;33069;51.970;5.892;2023-02-18T07:21:17;10.00;91.50
47338;DHT22;33069;51.970;5.892;2023-02-18T07:23:42;10.00;91.50
47338;DHT22;33069;51.970;5.892;2023-02-18T07:26:11;10.00;91.40
47338;DHT22;33069;51.970;5.892;2023-02-18T07:28:37;10.00;91.40
47338;DHT22;33069;51.970;5.892;2023-02-18T07:31:03;10.00;91.20
47338;DHT22;33069;51.970;5.892;2023-02-18T07:33:30;10.00;91.10
47338;DHT22;33069;51.970;5.892;2023-02-18T07:35:58;10.00;90.80
47338;DHT22;33069;51.970;5.892;2023-02-18T07:38:25;10.00;90.70
47338;DHT22;33069;51.970;5.892;2023-02-18T07:40:52;10.00;90.60
47338;DHT22;33069;51.970;5.892;2023-02-18T07:43:18;10.20;90.50
47338;DHT22;33069;51.970;5.892;2023-02-18T07:45:44;10.10;90.10
47338;DHT22;33069;51.970;5.892;2023-02-18T07:48:10;10.00;89.80
47338;DHT22;33069;51.970;5.892;2023-02-18T07:50:39;10.00;89.90
47338;DHT22;33069;51.970;5.892;2023-02-18T07:53:05;10.00;89.90
47338;DHT22;33069;51.970;5.892;2023-02-18T07:55:31;10.00;89.80
47338;DHT22;33069;51.970;5.892;2023-02-18T08:00:42;10.00;89.60
47338;DHT22;33069;51.970;5.892;2023-02-18T08:03:08;9.90;89.70
47338;DHT22;33069;51.970;5.892;2023-02-18T08:05:33;9.90;89.20
47338;DHT22;33069;51.970;5.892;2023-02-18T08:07:59;9.90;89.20
47338;DHT22;33069;51.970;5.892;2023-02-18T08:10:25;9.90;89.10
47338;DHT22;33069;51.970;5.892;2023-02-18T08:12:51;10.00;88.30
47338;DHT22;33069;51.970;5.892;2023-02-18T08:15:16;10.00;88.10
47338;DHT22;33069;51.970;5.892;2023-02-18T08:17:42;10.00;87.80
47338;DHT22;33069;51.970;5.892;2023-02-18T08:20:08;10.00;87.10
47338;DHT22;33069;51.970;5.892;2023-02-18T08:22:35;10.00;87.10
47338;DHT22;33069;51.970;5.892;2023-02-18T08:25:00;10.10;86.30
47338;DHT22;33069;51.970;5.892;2023-02-18T08:27:27;10.10;86.10
47338;DHT22;33069;51.970;5.892;2023-02-18T08:29:52;10.10;86.10
47338;DHT22;33069;51.970;5.892;2023-02-18T08:32:18;10.20;86.00
47338;DHT22;33069;51.970;5.892;2023-02-18T08:34:44;10.20;85.60
47338;DHT22;33069;51.970;5.892;2023-02-18T08:37:10;10.10;86.30
47338;DHT22;33069;51.970;5.892;2023-02-18T08:39:36;10.00;86.80
47338;DHT22;33069;51.970;5.892;2023-02-18T08:42:03;10.00;87.10
47338;DHT22;33069;51.970;5.892;2023-02-18T08:44:28;9.90;86.90
47338;DHT22;33069;51.970;5.892;2023-02-18T08:46:54;9.90;87.30
47338;DHT22;33069;51.970;5.892;2023-02-18T08:49:20;9.80;87.40
47338;DHT22;33069;51.970;5.892;2023-02-18T08:51:51;9.90;87.70
47338;DHT22;33069;51.970;5.892;2023-02-18T08:54:17;9.90;87.00
47338;DHT22;33069;51.970;5.892;2023-02-18T08:56:43;9.80;87.20
47338;DHT22;33069;51.970;5.892;2023-02-18T08:59:08;9.80;87.40
47338;DHT22;33069;51.970;5.892;2023-02-18T09:01:34;9.80;87.80
47338;DHT22;33069;51.970;5.892;2023-02-18T09:04:00;9.90;87.40
47338;DHT22;33069;51.970;5.892;2023-02-18T09:06:26;9.90;87.60
47338;DHT22;33069;51.970;5.892;2023-02-18T09:08:51;9.70;87.60
47338;DHT22;33069;51.970;5.892;2023-02-18T09:11:18;9.70;87.90
47338;DHT22;33069;51.970;5.892;2023-02-18T09:13:44;9.70;88.20
47338;DHT22;33069;51.970;5.892;2023-02-18T09:16:16;9.50;88.40
47338;DHT22;33069;51.970;5.892;2023-02-18T09:18:46;9.40;88.50
47338;DHT22;33069;51.970;5.892;2023-02-18T09:21:14;9.40;88.50
47338;DHT22;33069;51.970;5.892;2023-02-18T09:23:41;9.40;88.70
47338;DHT22;33069;51.970;5.892;2023-02-18T09:26:09;9.50;88.90
47338;DHT22;33069;51.970;5.892;2023-02-18T09:28:37;9.30;89.10
47338;DHT22;33069;51.970;5.892;2023-02-18T09:31:07;9.30;89.60
47338;DHT22;33069;51.970;5.892;2023-02-18T09:33:38;9.30;89.90
47338;DHT22;33069;51.970;5.892;2023-02-18T09:36:05;9.30;90.10
47338;DHT22;33069;51.970;5.892;2023-02-18T09:38:31;9.30;90.30
47338;DHT22;33069;51.970;5.892;2023-02-18T09:40:59;9.40;90.30
47338;DHT22;33069;51.970;5.892;2023-02-18T09:43:39;9.40;90.10
47338;DHT22;33069;51.970;5.892;2023-02-18T09:46:27;9.40;89.90
47338;DHT22;33069;51.970;5.892;2023-02-18T09:48:55;9.40;89.70
47338;DHT22;33069;51.970;5.892;2023-02-18T09:51:21;9.50;89.60
47338;DHT22;33069;51.970;5.892;2023-02-18T09:53:47;9.50;88.70
47338;DHT22;33069;51.970;5.892;2023-02-18T09:56:20;9.50;88.60
47338;DHT22;33069;51.970;5.892;2023-02-18T09:58:48;9.60;88.70
47338;DHT22;33069;51.970;5.892;2023-02-18T10:01:23;9.60;88.50
47338;DHT22;33069;51.970;5.892;2023-02-18T10:03:50;9.50;87.90
47338;DHT22;33069;51.970;5.892;2023-02-18T10:06:25;9.50;87.90
47338;DHT22;33069;51.970;5.892;2023-02-18T10:08:53;9.50;87.40
47338;DHT22;33069;51.970;5.892;2023-02-18T10:11:32;9.50;87.70
47338;DHT22;33069;51.970;5.892;2023-02-18T10:14:01;9.60;87.50
47338;DHT22;33069;51.970;5.892;2023-02-18T10:16:27;9.50;87.40
47338;DHT22;33069;51.970;5.892;2023-02-18T10:18:59;9.60;87.50
47338;DHT22;33069;51.970;5.892;2023-02-18T10:21:28;9.70;87.10
47338;DHT22;33069;51.970;5.892;2023-02-18T10:26:23;9.70;87.30
47338;DHT22;33069;51.970;5.892;2023-02-18T10:28:49;9.70;87.70
47338;DHT22;33069;51.970;5.892;2023-02-18T10:31:22;9.60;87.80
47338;DHT22;33069;51.970;5.892;2023-02-18T10:34:07;9.50;88.40
47338;DHT22;33069;51.970;5.892;2023-02-18T10:36:45;9.50;88.60
47338;DHT22;33069;51.970;5.892;2023-02-18T10:52:46;9.70;88.20
47338;DHT22;33069;51.970;5.892;2023-02-18T10:55:15;9.70;88.30
47338;DHT22;33069;51.970;5.892;2023-02-18T10:57:49;9.70;88.60
47338;DHT22;33069;51.970;5.892;2023-02-18T11:00:25;9.70;88.80
47338;DHT22;33069;51.970;5.892;2023-02-18T11:03:19;9.70;89.00
47338;DHT22;33069;51.970;5.892;2023-02-18T11:05:47;9.60;88.90
47338;DHT22;33069;51.970;5.892;2023-02-18T11:08:21;9.70;89.30
47338;DHT22;33069;51.970;5.892;2023-02-18T11:10:49;9.60;89.20
47338;DHT22;33069;51.970;5.892;2023-02-18T11:13:22;9.70;88.90
47338;DHT22;33069;51.970;5.892;2023-02-18T11:15:58;9.70;88.80
47338;DHT22;33069;51.970;5.892;2023-02-18T11:18:39;9.70;88.60
47338;DHT22;33069;51.970;5.892;2023-02-18T11:21:19;9.90;88.10
47338;DHT22;33069;51.970;5.892;2023-02-18T11:23:51;9.90;87.80
47338;DHT22;33069;51.970;5.892;2023-02-18T11:26:29;9.90;87.40
47338;DHT22;33069;51.970;5.892;2023-02-18T11:29:00;10.00;87.00
47338;DHT22;33069;51.970;5.892;2023-02-18T11:31:37;10.10;86.60
47338;DHT22;33069;51.970;5.892;2023-02-18T11:34:04;10.00;86.60
47338;DHT22;33069;51.970;5.892;2023-02-18T11:36:34;10.10;86.70
47338;DHT22;33069;51.970;5.892;2023-02-18T11:42:00;10.20;86.30
47338;DHT22;33069;51.970;5.892;2023-02-18T11:44:56;10.20;86.20
47338;DHT22;33069;51.970;5.892;2023-02-18T11:47:42;10.30;85.80
47338;DHT22;33069;51.970;5.892;2023-02-18T11:52:39;10.40;85.10
47338;DHT22;33069;51.970;5.892;2023-02-18T11:55:23;10.40;85.50
47338;DHT22;33069;51.970;5.892;2023-02-18T11:57:57;10.40;85.60
47338;DHT22;33069;51.970;5.892;2023-02-18T12:02:50;10.50;85.40
47338;DHT22;33069;51.970;5.892;2023-02-18T12:05:26;10.50;85.10
47338;DHT22;33069;51.970;5.892;2023-02-18T12:10:37;10.60;85.30
47338;DHT22;33069;51.970;5.892;2023-02-18T12:13:27;10.70;84.90
47338;DHT22;33069;51.970;5.892;2023-02-18T12:23:50;10.50;87.30
47338;DHT22;33069;51.970;5.892;2023-02-18T12:26:26;10.30;87.60
47338;DHT22;33069;51.970;5.892;2023-02-18T12:43:13;10.30;88.00
47338;DHT22;33069;51.970;5.892;2023-02-18T12:59:35;10.70;85.30
47338;DHT22;33069;51.970;5.892;2023-02-18T13:05:01;10.70;85.20
47338;DHT22;33069;51.970;5.892;2023-02-18T13:10:19;10.70;85.10
47338;DHT22;33069;51.970;5.892;2023-02-18T13:13:13;10.80;84.40
47338;DHT22;33069;51.970;5.892;2023-02-18T13:15:45;10.80;84.80
47338;DHT22;33069;51.970;5.892;2023-02-18T13:18:23;10.80;84.50
47338;DHT22;33069;51.970;5.892;2023-02-18T13:20:59;10.80;84.40
47338;DHT22;33069;51.970;5.892;2023-02-18T13:23:34;10.80;84.30
47338;DHT22;33069;51.970;5.892;2023-02-18T13:26:04;10.90;84.20
47338;DHT22;33069;51.970;5.892;2023-02-18T13:39:55;11.00;84.00
47338;DHT22;33069;51.970;5.892;2023-02-18T13:47:48;11.20;83.60
47338;DHT22;33069;51.970;5.892;2023-02-18T13:55:38;11.20;83.20
47338;DHT22;33069;51.970;5.892;2023-02-18T13:58:04;11.20;83.40
47338;DHT22;33069;51.970;5.892;2023-02-18T14:00:39;11.10;83.30
47338;DHT22;33069;51.970;5.892;2023-02-18T14:06:24;11.10;84.00
47338;DHT22;33069;51.970;5.892;2023-02-18T14:09:01;11.20;83.50
47338;DHT22;33069;51.970;5.892;2023-02-18T14:11:48;11.10;83.50
47338;DHT22;33069;51.970;5.892;2023-02-18T14:17:33;11.20;83.80
47338;DHT22;33069;51.970;5.892;2023-02-18T14:22:27;11.20;83.10
47338;DHT22;33069;51.970;5.892;2023-02-18T14:27:36;11.10;83.10
47338;DHT22;33069;51.970;5.892;2023-02-18T14:30:14;11.10;83.60
47338;DHT22;33069;51.970;5.892;2023-02-18T14:32:41;11.10;83.40
47338;DHT22;33069;51.970;5.892;2023-02-18T14:38:22;11.20;83.10
47338;DHT22;33069;51.970;5.892;2023-02-18T14:41:09;11.20;83.20
47338;DHT22;33069;51.970;5.892;2023-02-18T14:43:43;11.10;83.10
47338;DHT22;33069;51.970;5.892;2023-02-18T14:51:51;11.10;83.40
47338;DHT22;33069;51.970;5.892;2023-02-18T14:54:19;11.10;83.50
47338;DHT22;33069;51.970;5.892;2023-02-18T14:56:56;11.10;83.60
47338;DHT22;33069;51.970;5.892;2023-02-18T14:59:25;11.20;83.10
47338;DHT22;33069;51.970;5.892;2023-02-18T15:01:53;11.30;83.00
47338;DHT22;33069;51.970;5.892;2023-02-18T15:04:20;11.20;83.10
47338;DHT22;33069;51.970;5.892;2023-02-18T15:06:45;11.20;83.10
47338;DHT22;33069;51.970;5.892;2023-02-18T15:09:22;11.20;83.30
47338;DHT22;33069;51.970;5.892;2023-02-18T15:11:52;11.30;82.70
47338;DHT22;33069;51.970;5.892;2023-02-18T15:14:22;11.30;82.60
47338;DHT22;33069;51.970;5.892;2023-02-18T15:16:50;11.30;82.60
47338;DHT22;33069;51.970;5.892;2023-02-18T15:19:18;11.30;82.70
47338;DHT22;33069;51.970;5.892;2023-02-18T15:21:49;11.30;82.60
47338;DHT22;33069;51.970;5.892;2023-02-18T15:26:44;11.30;83.00
47338;DHT22;33069;51.970;5.892;2023-02-18T15:29:18;11.30;82.70
47338;DHT22;33069;51.970;5.892;2023-02-18T15:31:46;11.30;82.30
47338;DHT22;33069;51.970;5.892;2023-02-18T15:34:37;11.40;82.10
47338;DHT22;33069;51.970;5.892;2023-02-18T15:37:10;11.40;82.30
47338;DHT22;33069;51.970;5.892;2023-02-18T15:39:36;11.30;82.70
47338;DHT22;33069;51.970;5.892;2023-02-18T15:42:18;11.30;83.00
47338;DHT22;33069;51.970;5.892;2023-02-18T15:44:50;11.30;82.40
47338;DHT22;33069;51.970;5.892;2023-02-18T15:47:17;11.30;82.80
47338;DHT22;33069;51.970;5.892;2023-02-18T15:49:47;11.30;82.70
47338;DHT22;33069;51.970;5.892;2023-02-18T15:52:13;11.30;82.70
47338;DHT22;33069;51.970;5.892;2023-02-18T15:54:40;11.40;82.50
47338;DHT22;33069;51.970;5.892;2023-02-18T15:57:12;11.20;82.70
47338;DHT22;33069;51.970;5.892;2023-02-18T15:59:44;11.40;82.70
47338;DHT22;33069;51.970;5.892;2023-02-18T16:02:22;11.30;82.80
47338;DHT22;33069;51.970;5.892;2023-02-18T16:04:54;11.40;82.70
47338;DHT22;33069;51.970;5.892;2023-02-18T16:07:27;11.30;82.70
47338;DHT22;33069;51.970;5.892;2023-02-18T16:12:34;11.30;82.70
47338;DHT22;33069;51.970;5.892;2023-02-18T16:15:02;11.20;82.90
47338;DHT22;33069;51.970;5.892;2023-02-18T16:17:29;11.20;83.40
47338;DHT22;33069;51.970;5.892;2023-02-18T16:20:24;11.30;83.00
47338;DHT22;33069;51.970;5.892;2023-02-18T16:22:53;11.20;83.00
47338;DHT22;33069;51.970;5.892;2023-02-18T16:28:14;11.30;83.00
47338;DHT22;33069;51.970;5.892;2023-02-18T16:30:41;11.20;83.50
47338;DHT22;33069;51.970;5.892;2023-02-18T16:33:09;11.20;83.60
47338;DHT22;33069;51.970;5.892;2023-02-18T16:35:35;11.10;83.70
47338;DHT22;33069;51.970;5.892;2023-02-18T16:38:01;11.00;84.00
47338;DHT22;33069;51.970;5.892;2023-02-18T16:40:37;11.00;84.30
47338;DHT22;33069;51.970;5.892;2023-02-18T16:43:18;11.10;83.90
47338;DHT22;33069;51.970;5.892;2023-02-18T16:45:49;11.00;84.30
47338;DHT22;33069;51.970;5.892;2023-02-18T16:48:32;11.10;83.90
47338;DHT22;33069;51.970;5.892;2023-02-18T16:51:31;11.00;83.70
47338;DHT22;33069;51.970;5.892;2023-02-18T16:53:59;11.00;84.40
47338;DHT22;33069;51.970;5.892;2023-02-18T16:56:28;10.90;84.20
47338;DHT22;33069;51.970;5.892;2023-02-18T16:58:55;10.80;84.30
47338;DHT22;33069;51.970;5.892;2023-02-18T17:01:33;10.90;84.40
47338;DHT22;33069;51.970;5.892;2023-02-18T17:04:02;11.00;84.00
47338;DHT22;33069;51.970;5.892;2023-02-18T17:06:28;11.00;84.10
47338;DHT22;33069;51.970;5.892;2023-02-18T17:08:54;11.00;84.10
47338;DHT22;33069;51.970;5.892;2023-02-18T17:11:22;10.90;84.30
47338;DHT22;33069;51.970;5.892;2023-02-18T17:13:51;10.90;83.90
47338;DHT22;33069;51.970;5.892;2023-02-18T17:16:18;11.00;84.30
47338;DHT22;33069;51.970;5.892;2023-02-18T17:18:44;11.00;84.30
47338;DHT22;33069;51.970;5.892;2023-02-18T17:21:12;11.00;84.20
47338;DHT22;33069;51.970;5.892;2023-02-18T17:23:38;11.00;84.40
47338;DHT22;33069;51.970;5.892;2023-02-18T17:26:07;10.90;84.50
47338;DHT22;33069;51.970;5.892;2023-02-18T17:28:34;10.90;84.80
47338;DHT22;33069;51.970;5.892;2023-02-18T17:31:00;10.80;84.60
47338;DHT22;33069;51.970;5.892;2023-02-18T17:33:26;10.70;84.80
47338;DHT22;33069;51.970;5.892;2023-02-18T17:35:52;10.80;84.70
47338;DHT22;33069;51.970;5.892;2023-02-18T17:38:18;10.80;84.90
47338;DHT22;33069;51.970;5.892;2023-02-18T17:40:44;10.90;84.80
47338;DHT22;33069;51.970;5.892;2023-02-18T17:43:14;10.80;84.70
47338;DHT22;33069;51.970;5.892;2023-02-18T17:45:52;10.80;85.00
47338;DHT22;33069;51.970;5.892;2023-02-18T17:48:18;10.80;84.80
47338;DHT22;33069;51.970;5.892;2023-02-18T17:50:44;10.90;85.10
47338;DHT22;33069;51.970;5.892;2023-02-18T17:53:11;10.80;84.70
47338;DHT22;33069;51.970;5.892;2023-02-18T17:55:38;10.80;85.10
47338;DHT22;33069;51.970;5.892;2023-02-18T17:58:04;10.90;84.90
47338;DHT22;33069;51.970;5.892;2023-02-18T18:00:33;10.70;85.00
47338;DHT22;33069;51.970;5.892;2023-02-18T18:02:59;10.80;85.50
47338;DHT22;33069;51.970;5.892;2023-02-18T18:05:34;10.80;85.50
47338;DHT22;33069;51.970;5.892;2023-02-18T18:08:01;10.80;85.30
47338;DHT22;33069;51.970;5.892;2023-02-18T18:10:31;10.80;85.30
47338;DHT22;33069;51.970;5.892;2023-02-18T18:13:01;10.70;85.40
47338;DHT22;33069;51.970;5.892;2023-02-18T18:15:29;10.70;85.70
47338;DHT22;33069;51.970;5.892;2023-02-18T18:17:56;10.80;85.60
47338;DHT22;33069;51.970;5.892;2023-02-18T18:20:24;10.80;85.10
47338;DHT22;33069;51.970;5.892;2023-02-18T18:22:51;10.80;85.40
47338;DHT22;33069;51.970;5.892;2023-02-18T18:25:27;10.60;85.20